Data for 08/26/2018

Time Sea-Level Adjusted Pressure Absolute Pressure Temperature Relative Humidity Dew Point   
(mb) (inHg) (mb) (inHg) (C) (F) (%) (C) (F)
00:05 1014 29.94 843 24.89 14.8 58.7 60 7.2 44.9
00:10 1014 29.94 843 24.89 14.7 58.5 60 7.2 44.9
00:15 1014 29.94 844 24.92 14.6 58.3 60 7 44.7
00:20 1014 29.94 844 24.92 14.5 58 61 7 44.7
00:25 1014 29.94 844 24.92 14.4 57.8 61 7 44.6
00:30 1014 29.94 844 24.92 14.3 57.7 61 7 44.6
00:35 1015 29.97 844 24.92 14.2 57.6 62 7.1 44.8
00:40 1015 29.97 844 24.92 14.2 57.5 62 7.2 44.9
00:45 1015 29.97 844 24.92 14.1 57.4 63 7.2 45
00:50 1015 29.97 844 24.92 14 57.2 64 7.2 45
00:55 1015 29.97 844 24.92 14 57.1 64 7.2 45
01:00 1015 29.97 844 24.92 13.9 57.1 62 7 44.5
01:05 1015 29.97 844 24.92 14 57.2 63 7.1 44.7
01:10 1015 29.97 844 24.92 13.9 57 63 7 44.6
01:15 1015 29.97 844 24.92 13.8 56.8 62 6.7 44
01:20 1015 29.97 844 24.92 13.8 56.8 62 6.7 44.1
01:25 1015 29.97 844 24.92 13.4 56.2 60 5.8 42.5
01:30 1015 29.97 844 24.92 13.3 55.9 54 4.2 39.6
01:35 1015 29.97 844 24.92 13.6 56.4 49 3.1 37.5
01:40 1015 29.97 844 24.92 13.6 56.5 50 3.4 38.1
01:45 1015 29.97 844 24.92 13.3 56 50 3.3 37.9
01:50 1015 29.97 844 24.92 12.9 55.2 50 2.9 37.3
01:55 1015 29.97 844 24.92 12.8 55 51 3 37.3
02:00 1015 29.97 844 24.92 12.7 54.9 52 3.2 37.8
02:05 1014 29.94 844 24.92 12.8 55.1 52 3.4 38
02:10 1015 29.97 844 24.92 12.7 54.8 52 3.2 37.8
02:15 1015 29.97 844 24.92 12.8 55 52 3.2 37.7
02:20 1014 29.94 844 24.92 12.9 55.3 50 2.7 36.9
02:25 1015 29.97 844 24.92 13.3 55.9 49 2.9 37.3
02:30 1015 29.97 844 24.92 13.1 55.7 51 3.2 37.8
02:35 1015 29.97 844 24.92 12.8 55 51 2.9 37.2
02:40 1015 29.97 844 24.92 12.9 55.3 48 2.3 36.1
02:45 1015 29.97 844 24.92 13.3 55.9 45 1.6 34.8
02:50 1015 29.97 844 24.92 13.7 56.7 42 1.2 34.2
02:55 1015 29.97 844 24.92 14 57.1 41 1 33.8
03:00 1015 29.97 844 24.92 14.3 57.8 38 0.1 32.2
03:05 1015 29.97 844 24.92 14.5 58.1 38 0.4 32.7
03:10 1015 29.97 844 24.92 14.5 58 38 0.3 32.5
03:15 1015 29.97 844 24.92 14.4 57.9 38 0.2 32.4
03:20 1015 29.97 844 24.92 14.3 57.7 38 0.4 32.7
03:25 1015 29.97 844 24.92 14.2 57.6 37 -0.2 31.6
03:30 1015 29.97 844 24.92 14.3 57.8 36 -0.5 31.1
03:35 1015 29.97 844 24.92 14.4 58 36 -0.3 31.5
03:40 1015 29.97 844 24.92 14.4 57.9 36 -0.3 31.5
03:45 1015 29.97 844 24.92 14.3 57.7 36 -0.4 31.2
03:50 1015 29.97 844 24.92 14.2 57.6 37 -0.3 31.5
03:55 1015 29.97 844 24.92 14.3 57.7 37 -0.1 31.9
04:00 1015 29.97 844 24.92 14.3 57.8 34 -1.3 29.6
04:05 1015 29.97 844 24.92 14.5 58.1 33 -1.3 29.6
04:10 1015 29.97 844 24.92 14.7 58.5 36 -0.1 31.8
04:15 1015 29.97 844 24.92 14.6 58.3 34 -1 30.3
04:20 1015 29.97 844 24.92 14.5 58.1 34 -1 30.1
04:25 1015 29.97 844 24.92 14.5 58.1 36 -0.3 31.4
04:30 1015 29.97 844 24.92 14.3 57.8 34 -1.3 29.7
04:35 1015 29.97 844 24.92 14.5 58.2 36 -0.2 31.6
04:40 1015 29.97 844 24.92 14.3 57.8 36 -0.4 31.3
04:45 1014 29.94 844 24.92 14.8 58.6 36 -0.1 31.8
04:50 1014 29.94 844 24.92 14.6 58.3 38 0.5 33
04:55 1014 29.94 844 24.92 15 59 39 1.3 34.3
05:00 1014 29.94 844 24.92 15.2 59.3 40 1.8 35.2
05:05 1014 29.94 844 24.92 15.1 59.2 40 1.8 35.2
05:10 1014 29.94 844 24.92 14.8 58.6 41 1.6 35
05:15 1014 29.94 844 24.92 15.4 59.8 39 1.7 35
05:20 1014 29.94 844 24.92 15.8 60.4 37 1.4 34.5
05:25 1014 29.94 843 24.89 16 60.8 37 1.5 34.8
05:30 1014 29.94 843 24.89 16.1 60.9 37 1.5 34.6
05:35 1014 29.94 844 24.92 16 60.7 42 3.1 37.5
05:40 1014 29.94 844 24.92 14.8 58.6 44 2.9 37.2
05:45 1014 29.94 843 24.89 14.2 57.5 46 2.8 37.1
05:50 1014 29.94 843 24.89 13.9 57 47 2.8 37.1
05:55 1014 29.94 844 24.92 13.8 56.9 47 2.8 37
06:00 1015 29.97 844 24.92 13.9 57 48 3.2 37.8
06:05 1015 29.97 844 24.92 14 57.2 46 2.5 36.5
06:10 1015 29.97 844 24.92 14.2 57.5 45 2.5 36.5
06:15 1015 29.97 844 24.92 14.2 57.6 46 2.8 37
06:20 1015 29.97 844 24.92 14.2 57.5 47 3 37.4
06:25 1014 29.94 844 24.92 14 57.3 46 2.8 37
06:30 1014 29.94 844 24.92 14 57.2 46 2.5 36.5
06:35 1014 29.94 844 24.92 14 57.2 45 2.2 36
06:40 1014 29.94 844 24.92 13.9 57 45 2.3 36.2
06:45 1015 29.97 844 24.92 13.8 56.8 43 1.5 34.7
06:50 1015 29.97 844 24.92 13.8 56.8 42 1.3 34.3
06:55 1015 29.97 844 24.92 13.8 56.8 43 1.5 34.6
07:00 1015 29.97 844 24.92 13.7 56.7 44 1.9 35.4
07:05 1015 29.97 844 24.92 13.6 56.5 47 2.5 36.5
07:10 1015 29.97 844 24.92 13.5 56.2 49 2.9 37.3
07:15 1015 29.97 844 24.92 13.3 56 50 3.1 37.5
07:20 1015 29.97 844 24.92 13.1 55.6 52 3.4 38.1
07:25 1015 29.97 845 24.95 12.9 55.1 54 3.8 38.9
07:30 1016 30 845 24.95 12.7 54.8 58 4.7 40.5
07:35 1016 30 845 24.95 12.3 54.2 60 4.8 40.7
07:40 1015 29.97 845 24.95 12.1 53.8 57 3.8 38.9
07:45 1015 29.97 845 24.95 12.1 53.8 57 3.8 38.9
07:50 1015 29.97 845 24.95 12.6 54.6 51 2.7 36.9
07:55 1015 29.97 845 24.95 13.3 55.9 55 4.4 40
08:00 1015 29.97 845 24.95 13.3 55.9 51 3.5 38.4
08:05 1015 29.97 845 24.95 13.1 55.5 53 3.8 38.8
08:10 1016 30 845 24.95 12.9 55.2 56 4.3 39.7
08:15 1016 30 845 24.95 13.2 55.7 50 3.2 37.7
08:20 1015 29.97 845 24.95 13.6 56.5 49 3.2 37.8
08:25 1015 29.97 845 24.95 13.6 56.5 46 2.2 36
08:30 1015 29.97 845 24.95 13.6 56.6 46 2.2 36
08:35 1016 30 845 24.95 13.8 56.9 45 2 35.7
08:40 1016 30 845 24.95 14 57.2 42 1.3 34.4
08:45 1016 30 845 24.95 14 57.2 46 2.6 36.6
08:50 1016 30 845 24.95 14 57.3 46 2.7 36.8
08:55 1016 30 845 24.95 13.8 56.8 47 2.6 36.7
09:00 1016 30 845 24.95 13.8 56.8 49 3.2 37.7
09:05 1016 30 845 24.95 13.9 57 47 2.8 37
09:10 1016 30 845 24.95 14 57.2 46 2.6 36.7
09:15 1016 30 845 24.95 14.2 57.5 43 1.8 35.2
09:20 1016 30 845 24.95 14.2 57.6 44 2.2 35.9
09:25 1016 30 845 24.95 14.1 57.4 45 2.5 36.5
09:30 1016 30 845 24.95 14.2 57.5 46 2.8 37
09:35 1016 30 845 24.95 14.1 57.3 44 2.1 35.8
09:40 1016 30 845 24.95 14 57.2 44 2 35.7
09:45 1016 30 846 24.98 13.9 56.9 47 2.7 36.8
09:50 1016 30 846 24.98 13.8 56.8 48 3 37.4
09:55 1016 30 846 24.98 13.7 56.7 52 4.1 39.4
10:00 1016 30 846 24.98 13.6 56.4 52 3.9 39.1
10:05 1016 30 846 24.98 13.6 56.5 51 3.7 38.6
10:10 1016 30 846 24.98 13.4 56.2 49 3.1 37.7
10:15 1016 30 846 24.98 13.5 56.3 50 3.3 38
10:20 1016 30 846 24.98 13.9 57 49 3.4 38
10:25 1016 30 846 24.98 14.1 57.5 48 3.4 38.2
10:30 1016 30 846 24.98 14.3 57.7 46 2.9 37.1
10:35 1016 30 846 24.98 14.4 57.9 46 2.9 37.2
10:40 1016 30 846 24.98 14.5 58.1 46 3 37.4
10:45 1016 30 845 24.95 15 59.1 43 2.6 36.6
10:50 1016 30 845 24.95 15.2 59.4 44 3.1 37.5
10:55 1016 30 845 24.95 15.5 60 42 2.9 37.3
11:00 1016 30 845 24.95 15.6 60.1 42 3 37.4
11:05 1016 30 845 24.95 15.2 59.3 43 2.7 36.9
11:10 1016 30 845 24.95 14.8 58.6 45 3.1 37.6
11:15 1016 30 845 24.95 15.2 59.3 45 3.5 38.3
11:20 1016 30 845 24.95 15.3 59.5 45 3.4 38.1
11:25 1016 30 845 24.95 15.2 59.4 44 3 37.4
11:30 1016 30 845 24.95 15.2 59.4 44 3.1 37.6
11:35 1016 30 845 24.95 15.8 60.4 43 3.3 38
11:40 1016 30 845 24.95 16 60.8 42 3.1 37.6
11:45 1016 30 845 24.95 16.5 61.6 42 3.5 38.3
11:50 1016 30 845 24.95 16.9 62.4 41 3.5 38.4
11:55 1016 30 845 24.95 17 62.5 40 3.6 38.4
12:00 1016 30 845 24.95 17.2 62.9 40 3.5 38.3
12:05 1016 30 845 24.95 17.1 62.7 39 3.2 37.7
12:10 1016 30 845 24.95 17 62.5 39 3.2 37.7
12:15 1016 30 845 24.95 17.2 63 38 2.8 37.1
12:20 1016 30 845 24.95 17.7 63.9 37 3.1 37.6
12:25 1015 29.97 845 24.95 17.8 64 38 3.2 37.8
12:30 1015 29.97 845 24.95 17.7 63.8 37 3.1 37.6
12:35 1015 29.97 844 24.92 17.6 63.6 38 3.2 37.8
12:40 1015 29.97 844 24.92 17.4 63.3 37 2.8 37
12:45 1015 29.97 844 24.92 17.6 63.7 36 2.5 36.5
12:50 1015 29.97 844 24.92 17.9 64.2 35 2.4 36.3
12:55 1015 29.97 844 24.92 17.8 64 37 3.1 37.6
13:00 1015 29.97 844 24.92 17.8 64 37 3 37.5
13:05 1015 29.97 844 24.92 18.1 64.6 37 3.2 37.8
13:10 1015 29.97 844 24.92 18.4 65.2 35 2.9 37.2
13:15 1015 29.97 844 24.92 18.2 64.8 35 2.5 36.5
13:20 1015 29.97 844 24.92 17.9 64.2 35 2.3 36.2
13:25 1015 29.97 844 24.92 17.8 64 35 2.3 36.1
13:30 1015 29.97 844 24.92 18 64.4 37 3.1 37.6
13:35 1015 29.97 844 24.92 18.4 65.1 36 3 37.5
13:40 1015 29.97 844 24.92 18.3 65 35 2.9 37.3
13:45 1015 29.97 844 24.92 18.4 65.1 36 3.3 37.9
13:50 1015 29.97 844 24.92 18 64.4 39 3.9 39
13:55 1015 29.97 844 24.92 17.3 63.1 39 3.3 37.9
14:00 1015 29.97 844 24.92 18 64.4 36 3 37.4
14:05 1015 29.97 844 24.92 18.4 65 36 3.1 37.6
14:10 1014 29.94 844 24.92 18.2 64.7 36 3 37.3
14:15 1014 29.94 844 24.92 18.2 64.8 36 3.2 37.7
14:20 1014 29.94 844 24.92 18.2 64.7 35 2.8 37
14:25 1014 29.94 843 24.89 18.2 64.7 37 3.2 37.8
14:30 1014 29.94 843 24.89 18.5 65.2 33 2 35.6
14:35 1014 29.94 843 24.89 19 66.2 32 2.2 36
14:40 1014 29.94 843 24.89 19.1 66.3 33 2.5 36.5
14:45 1014 29.94 843 24.89 19.6 67.3 31 2.2 35.9
14:50 1014 29.94 843 24.89 19.2 66.6 32 2.5 36.4
14:55 1014 29.94 843 24.89 18.8 65.9 33 2.3 36.1
15:00 1014 29.94 843 24.89 18.9 66 32 2.2 35.9
15:05 1014 29.94 843 24.89 18.5 65.4 33 2.2 35.9
15:10 1014 29.94 843 24.89 18.6 65.4 34 2.6 36.7
15:15 1014 29.94 843 24.89 19 66.2 32 2.3 36.1
15:20 1013 29.91 843 24.89 19 66.2 34 2.7 36.9
15:25 1013 29.91 843 24.89 18.8 65.8 33 2.3 36.1
15:30 1013 29.91 843 24.89 19 66.1 32 2.2 36
15:35 1013 29.91 843 24.89 19 66.2 31 1.8 35.2
15:40 1013 29.91 843 24.89 18.7 65.7 31 1.4 34.6
15:45 1013 29.91 843 24.89 18.8 65.8 31 1.5 34.6
15:50 1013 29.91 843 24.89 18.7 65.6 31 1.4 34.6
15:55 1013 29.91 842 24.86 18.8 65.9 30 1.1 34
16:00 1013 29.91 842 24.86 19.2 66.5 30 1.1 34
16:05 1013 29.91 842 24.86 19.3 66.7 30 1.4 34.5
16:10 1013 29.91 842 24.86 19.3 66.7 31 1.7 35
16:15 1013 29.91 842 24.86 19.1 66.4 31 1.6 34.9
16:20 1013 29.91 842 24.86 18.9 66 30 1.2 34.2
16:25 1013 29.91 842 24.86 18.9 66 31 1.6 34.9
16:30 1013 29.91 842 24.86 18.8 65.9 31 1.3 34.4
16:35 1013 29.91 842 24.86 18.8 65.9 31 1.5 34.6
16:40 1013 29.91 842 24.86 19.1 66.4 32 2 35.6
16:45 1013 29.91 842 24.86 19.2 66.6 30 1.4 34.6
16:50 1013 29.91 842 24.86 18.9 66.1 31 1.5 34.7
16:55 1013 29.91 842 24.86 18.7 65.6 31 1.6 34.8
17:00 1013 29.91 842 24.86 18.7 65.6 30 1 33.9
17:05 1013 29.91 842 24.86 19 66.1 30 1.2 34.1
17:10 1013 29.91 842 24.86 19.1 66.3 30 1 33.8
17:15 1013 29.91 842 24.86 19 66.1 32 2.1 35.7
17:20 1013 29.91 842 24.86 18.2 64.8 32 1.4 34.5
17:25 1013 29.91 842 24.86 18.4 65 33 1.7 35.1
17:30 1013 29.91 842 24.86 18.5 65.2 32 1.5 34.7
17:35 1013 29.91 842 24.86 18.2 64.8 32 1.4 34.4
17:40 1013 29.91 842 24.86 18.3 65 31 0.9 33.7
17:45 1013 29.91 842 24.86 18.4 65.1 31 1 33.8
17:50 1013 29.91 842 24.86 18.4 65.1 33 2 35.6
17:55 1012 29.88 842 24.86 17.8 64 33 1.4 34.6
18:00 1012 29.88 842 24.86 17.7 63.9 33 1.4 34.5
18:05 1012 29.88 842 24.86 17.8 64 33 1.3 34.3
18:10 1012 29.88 842 24.86 17.6 63.6 35 1.9 35.4
18:15 1012 29.88 842 24.86 17.2 62.9 37 2.5 36.5
18:20 1012 29.88 842 24.86 17.2 63 40 3.5 38.4
18:25 1013 29.91 842 24.86 17.2 62.9 43 4.5 40
18:30 1012 29.88 842 24.86 17 62.6 42 4.1 39.4
18:35 1012 29.88 842 24.86 16.5 61.7 47 5.2 41.4
18:40 1013 29.91 842 24.86 16 60.9 50 5.8 42.5
18:45 1013 29.91 842 24.86 15.5 59.8 56 6.7 44.1
18:50 1013 29.91 842 24.86 15.1 59.1 54 6 42.7
18:55 1013 29.91 842 24.86 14.9 58.9 55 6 42.8
19:00 1013 29.91 842 24.86 14.7 58.4 55 5.9 42.6
19:05 1013 29.91 842 24.86 14.7 58.4 56 6.2 43.1
19:10 1013 29.91 842 24.86 14 57.2 67 8.1 46.7
19:15 1013 29.91 842 24.86 13.4 56 68 7.7 45.8
19:20 1013 29.91 842 24.86 13 55.5 73 8.3 46.9
19:25 1013 29.91 842 24.86 12.8 55 73 8.2 46.7
19:30 1013 29.91 843 24.89 12.4 54.4 79 8.8 47.9
19:35 1014 29.94 843 24.89 12.2 54 80 8.9 48.1
19:40 1014 29.94 843 24.89 11.8 53.3 81 8.7 47.6
19:45 1014 29.94 843 24.89 11.5 52.7 82 8.5 47.3
19:50 1014 29.94 843 24.89 11.3 52.3 82 8.4 47.2
19:55 1014 29.94 843 24.89 11.1 52 83 8.3 46.9
20:00 1014 29.94 843 24.89 10.9 51.6 83 8.2 46.7
20:05 1014 29.94 843 24.89 10.7 51.3 86 8.5 47.3
20:10 1014 29.94 843 24.89 10.5 50.9 88 8.6 47.4
20:15 1014 29.94 843 24.89 10.5 50.9 87 8.5 47.3
20:20 1014 29.94 843 24.89 10.4 50.8 86 8.2 46.8
20:25 1014 29.94 843 24.89 10.4 50.8 84 7.8 46
20:30 1013 29.91 843 24.89 10.4 50.7 86 8.2 46.7
20:35 1013 29.91 843 24.89 10.2 50.4 87 8.2 46.8
20:40 1013 29.91 843 24.89 10.2 50.3 85 7.7 45.9
20:45 1013 29.91 843 24.89 10.2 50.4 85 7.8 46
20:50 1013 29.91 843 24.89 10.3 50.5 85 7.8 46.1
20:55 1013 29.91 843 24.89 10.3 50.5 85 7.8 46
21:00 1013 29.91 842 24.86 10.2 50.3 86 7.9 46.3
21:05 1013 29.91 842 24.86 10.1 50.2 86 7.9 46.3
21:10 1013 29.91 842 24.86 10.1 50.2 87 8.1 46.5
21:15 1013 29.91 842 24.86 10.1 50.3 87 8.1 46.7
21:20 1013 29.91 842 24.86 10.2 50.3 86 8 46.4
21:25 1013 29.91 842 24.86 10.2 50.3 86 8 46.3
21:30 1013 29.91 842 24.86 10.2 50.4 85 7.8 46
21:35 1013 29.91 842 24.86 10.2 50.4 86 7.9 46.3
21:40 1013 29.91 842 24.86 10.2 50.4 85 7.8 46.1
21:45 1013 29.91 842 24.86 10.3 50.5 85 7.9 46.1
21:50 1013 29.91 842 24.86 10.3 50.5 85 7.8 46.1
21:55 1013 29.91 842 24.86 10.3 50.5 85 7.9 46.2
22:00 1013 29.91 842 24.86 10.3 50.5 85 7.8 46
22:05 1013 29.91 842 24.86 10.3 50.5 84 7.7 45.8
22:10 1013 29.91 842 24.86 10.4 50.8 81 7.3 45.2
22:15 1013 29.91 842 24.86 10.5 50.9 82 7.6 45.6
22:20 1013 29.91 842 24.86 10.3 50.5 81 7.3 45.1
22:25 1013 29.91 842 24.86 10.3 50.5 81 7.2 45
22:30 1013 29.91 842 24.86 10.2 50.4 81 7.1 44.8
22:35 1013 29.91 842 24.86 10.2 50.4 83 7.4 45.4
22:40 1013 29.91 842 24.86 10.1 50.1 84 7.5 45.5
22:45 1013 29.91 842 24.86 10.1 50.2 84 7.6 45.7
22:50 1013 29.91 842 24.86 10.3 50.5 86 8 46.5
22:55 1013 29.91 842 24.86 10.4 50.7 86 8.1 46.6
23:00 1013 29.91 842 24.86 10.4 50.6 85 7.9 46.2
23:05 1013 29.91 842 24.86 10.3 50.5 85 7.8 46.1
23:10 1013 29.91 842 24.86 10.2 50.3 85 7.8 46
23:15 1013 29.91 842 24.86 10 50 86 7.9 46.1
23:20 1013 29.91 842 24.86 9.9 49.8 87 7.9 46.2
23:25 1013 29.91 842 24.86 9.8 49.7 88 7.9 46.2
23:30 1013 29.91 842 24.86 9.8 49.6 89 8 46.4
23:35 1013 29.91 842 24.86 9.7 49.4 88 7.9 46.2
23:40 1013 29.91 842 24.86 9.4 48.9 89 7.6 45.7
23:45 1013 29.91 842 24.86 9.2 48.6 89 7.5 45.6
23:50 1013 29.91 842 24.86 9.2 48.5 90 7.5 45.6
23:55 1013 29.91 842 24.86 9.2 48.5 90 7.6 45.6
24:00 1013 29.91 842 24.86 9.1 48.4 90 7.6 45.6